createdAt,value
2019-04-22T00:02:20.685Z,5.13
2019-04-22T00:05:01.058Z,6.73
2019-04-22T00:07:43.236Z,5.10
2019-04-22T00:10:19.365Z,5.37
2019-04-22T00:12:47.246Z,5.10
2019-04-22T00:15:10.129Z,5.80
2019-04-22T00:17:55.077Z,5.43
2019-04-22T00:20:14.725Z,5.70
2019-04-22T00:22:44.858Z,5.83
2019-04-22T00:25:19.862Z,5.43
2019-04-22T00:32:59.336Z,6.70
2019-04-22T00:35:23.792Z,5.90
2019-04-22T00:38:07.755Z,6.50
2019-04-22T00:40:33.959Z,5.93
2019-04-22T00:42:58.343Z,6.30
2019-04-22T00:45:36.204Z,6.57
2019-04-22T00:48:09.088Z,6.63
2019-04-22T00:50:37.441Z,6.70
2019-04-22T00:53:09.011Z,6.00
2019-04-22T00:55:37.896Z,6.40
2019-04-22T00:58:08.300Z,5.80
2019-04-22T01:00:39.173Z,6.93
2019-04-22T01:03:10.961Z,6.20
2019-04-22T01:05:43.851Z,6.40
2019-04-22T01:08:17.754Z,5.63
2019-04-22T01:10:49.494Z,5.60
2019-04-22T01:13:12.423Z,7.77
2019-04-22T01:15:44.267Z,6.17
2019-04-22T01:18:11.190Z,5.77
2019-04-22T01:21:00.963Z,6.07
2019-04-22T01:23:12.955Z,6.77
2019-04-22T01:25:44.043Z,5.97
2019-04-22T01:28:06.406Z,5.93
2019-04-22T01:30:30.335Z,5.73
2019-04-22T01:32:57.922Z,5.47
2019-04-22T01:35:37.832Z,6.30
2019-04-22T01:38:07.843Z,6.77
2019-04-22T01:40:52.821Z,6.70
2019-04-22T01:43:25.106Z,5.30
2019-04-22T01:45:53.260Z,5.77
2019-04-22T01:48:19.612Z,5.90
2019-04-22T01:50:49.644Z,5.63
2019-04-22T01:53:19.655Z,6.73
2019-04-22T01:55:55.535Z,6.70
2019-04-22T01:58:18.367Z,6.10
2019-04-22T02:00:58.264Z,5.87
2019-04-22T02:03:25.962Z,6.30
2019-04-22T02:05:51.066Z,6.97
2019-04-22T02:08:31.264Z,6.97
2019-04-22T02:10:57.187Z,6.60
2019-04-22T02:13:28.769Z,6.90
2019-04-22T02:16:01.623Z,6.27
2019-04-22T02:18:36.266Z,6.23
2019-04-22T02:20:55.347Z,6.33
2019-04-22T02:28:39.899Z,5.57
2019-04-22T02:34:01.264Z,5.60
2019-04-22T02:36:22.586Z,6.33
2019-04-22T02:41:22.872Z,5.10
2019-04-22T02:51:16.898Z,6.07
2019-04-22T02:54:15.331Z,6.10
2019-04-22T03:01:27.515Z,7.23
2019-04-22T03:06:29.573Z,5.87
2019-04-22T03:08:46.143Z,5.80
2019-04-22T03:11:19.102Z,6.37
2019-04-22T03:21:18.638Z,5.63
2019-04-22T03:24:05.908Z,6.30
2019-04-22T03:26:27.447Z,6.40
2019-04-22T03:28:51.155Z,6.07
2019-04-22T03:31:53.699Z,5.77
2019-04-22T03:34:39.498Z,6.57
2019-04-22T03:39:28.230Z,6.33
2019-04-22T03:41:50.098Z,5.97
2019-04-22T03:44:23.475Z,5.30
2019-04-22T03:46:30.288Z,6.40
2019-04-22T03:49:09.387Z,6.90
2019-04-22T03:57:10.440Z,6.73
2019-04-22T03:59:09.885Z,6.73
2019-04-22T04:04:13.053Z,5.07
2019-04-22T04:06:43.248Z,7.20
2019-04-22T04:09:09.347Z,6.97
2019-04-22T04:11:43.299Z,7.30
2019-04-22T04:14:11.970Z,4.90
2019-04-22T04:16:39.159Z,5.53
2019-04-22T04:19:13.625Z,5.73
2019-04-22T04:24:29.549Z,5.87
2019-04-22T04:36:42.191Z,5.67
2019-04-22T04:39:05.513Z,6.07
2019-04-22T04:41:42.755Z,5.70
2019-04-22T04:46:45.080Z,6.50
2019-04-22T04:49:43.569Z,6.60
2019-04-22T04:51:37.746Z,6.00
2019-04-22T04:56:42.463Z,4.30
2019-04-22T05:01:44.568Z,6.27
2019-04-22T05:04:13.697Z,6.20
2019-04-22T05:06:51.546Z,5.30
2019-04-22T05:11:57.552Z,5.80
2019-04-22T05:14:17.529Z,6.87
2019-04-22T05:19:15.929Z,4.77
2019-04-22T05:21:48.560Z,5.13
2019-04-22T05:24:16.581Z,5.43
2019-04-22T05:29:12.826Z,5.33
2019-04-22T05:31:43.640Z,5.67
2019-04-22T05:34:19.473Z,5.90
2019-04-22T05:39:11.185Z,4.73
2019-04-22T05:41:43.160Z,6.33
2019-04-22T05:44:18.694Z,5.57
2019-04-22T05:46:40.806Z,6.10
2019-04-22T05:51:41.765Z,5.60
2019-04-22T05:54:14.579Z,5.90
2019-04-22T05:56:40.919Z,5.97
2019-04-22T05:59:17.660Z,6.03
2019-04-22T06:04:14.723Z,6.33
2019-04-22T06:06:46.967Z,5.90
2019-04-22T06:09:19.148Z,6.17
2019-04-22T06:11:42.819Z,6.30
2019-04-22T06:14:13.944Z,5.50
2019-04-22T06:16:53.212Z,6.87
2019-04-22T06:19:18.845Z,6.20
2019-04-22T06:21:50.145Z,6.70
2019-04-22T06:27:01.560Z,5.80
2019-04-22T06:29:36.560Z,6.10
2019-04-22T06:32:22.292Z,7.20
2019-04-22T06:34:30.775Z,8.23
2019-04-22T06:36:59.725Z,6.57
2019-04-22T06:39:34.117Z,6.97
2019-04-22T06:42:02.062Z,7.70
2019-04-22T06:44:29.611Z,7.17
2019-04-22T06:47:00.656Z,6.90
2019-04-22T06:49:30.106Z,6.10
2019-04-22T06:52:04.435Z,7.80
2019-04-22T06:54:32.508Z,6.63
2019-04-22T06:57:03.995Z,8.77
2019-04-22T06:59:31.164Z,7.57
2019-04-22T07:02:04.837Z,6.80
2019-04-22T07:04:34.433Z,7.07
2019-04-22T07:12:06.379Z,5.07
2019-04-22T07:14:36.375Z,7.10
2019-04-22T07:17:01.839Z,5.53
2019-04-22T07:19:37.181Z,6.30
2019-04-22T07:22:11.329Z,6.30
2019-04-22T07:27:10.532Z,5.90
2019-04-22T07:29:42.787Z,6.30
2019-04-22T07:32:07.844Z,5.77
2019-04-22T07:34:44.556Z,5.97
2019-04-22T07:37:23.062Z,6.60
2019-04-22T07:39:44.148Z,5.10
2019-04-22T07:42:13.495Z,6.33
2019-04-22T07:44:43.049Z,5.50
2019-04-22T07:49:43.836Z,5.13
2019-04-22T07:52:14.226Z,5.30
2019-04-22T07:54:41.667Z,5.83
2019-04-22T07:59:40.488Z,5.87
2019-04-22T08:02:16.070Z,6.03
2019-04-22T08:05:01.972Z,5.70
2019-04-22T08:07:30.364Z,6.00
2019-04-22T08:09:51.090Z,5.97
2019-04-22T08:12:12.018Z,6.60
2019-04-22T08:14:45.855Z,6.67
2019-04-22T08:17:41.519Z,6.47
2019-04-22T08:19:53.807Z,6.10
2019-04-22T08:22:17.050Z,5.53
2019-04-22T08:24:47.186Z,5.77
2019-04-22T08:27:15.254Z,5.37
2019-04-22T08:29:52.233Z,5.87
2019-04-22T08:32:21.775Z,6.27
2019-04-22T08:34:47.599Z,5.33
2019-04-22T08:37:42.262Z,5.20
2019-04-22T08:39:56.678Z,5.30
2019-04-22T08:42:29.519Z,5.23
2019-04-22T08:45:09.677Z,5.80
2019-04-22T08:47:29.214Z,5.80
2019-04-22T08:49:59.686Z,6.20
2019-04-22T08:52:22.286Z,5.73
2019-04-22T08:54:51.229Z,6.43
2019-04-22T08:57:30.262Z,6.00
2019-04-22T08:59:57.451Z,6.13
2019-04-22T09:02:26.023Z,5.70
2019-04-22T09:04:53.686Z,5.47
2019-04-22T09:07:30.304Z,5.70
2019-04-22T09:09:50.643Z,4.20
2019-04-22T09:12:37.039Z,4.83
2019-04-22T09:14:53.758Z,5.60
2019-04-22T09:17:41.317Z,4.90
2019-04-22T09:19:56.333Z,6.00
2019-04-22T09:22:21.862Z,5.47
2019-04-22T09:24:54.043Z,4.73
2019-04-22T09:27:33.169Z,6.20
2019-04-22T09:30:01.144Z,4.40
2019-04-22T09:32:26.939Z,5.17
2019-04-22T09:35:09.479Z,4.90
2019-04-22T09:40:04.614Z,4.60
2019-04-22T09:42:37.238Z,4.80
2019-04-22T09:44:59.193Z,5.50
2019-04-22T09:47:37.231Z,4.10
2019-04-22T09:50:03.775Z,4.73
2019-04-22T09:52:32.203Z,4.20
2019-04-22T09:55:06.135Z,4.43
2019-04-22T09:57:33.936Z,4.17
2019-04-22T10:00:02.822Z,4.20
2019-04-22T10:02:34.471Z,4.23
2019-04-22T10:05:07.896Z,4.40
2019-04-22T10:07:31.828Z,2.87
2019-04-22T10:10:14.352Z,4.50
2019-04-22T10:12:36.597Z,3.93
2019-04-22T10:15:19.538Z,5.03
2019-04-22T10:17:37.970Z,4.07
2019-04-22T10:20:07.116Z,4.33
2019-04-22T10:22:39.336Z,3.80
2019-04-22T10:25:11.899Z,3.67
2019-04-22T10:27:46.420Z,3.90
2019-04-22T10:32:38.145Z,4.23
2019-04-22T10:34:55.555Z,4.60
2019-04-22T10:37:23.431Z,3.90
2019-04-22T10:39:56.232Z,3.00
2019-04-22T10:42:23.055Z,2.90
2019-04-22T10:44:53.694Z,2.70
2019-04-22T10:47:22.387Z,3.03
2019-04-22T10:49:52.261Z,2.87
2019-04-22T10:52:21.634Z,3.00
2019-04-22T10:54:51.551Z,3.37
2019-04-22T10:57:20.307Z,3.07
2019-04-22T10:59:50.320Z,2.73
2019-04-22T11:02:19.267Z,3.00
2019-04-22T11:04:50.324Z,3.30
2019-04-22T11:07:25.224Z,3.00
2019-04-22T11:09:59.282Z,3.00
2019-04-22T11:12:24.724Z,2.53
2019-04-22T11:14:51.838Z,2.87
2019-04-22T11:17:21.757Z,2.50
2019-04-22T11:19:50.542Z,2.30
2019-04-22T11:22:23.023Z,2.17
2019-04-22T11:24:50.810Z,2.30
2019-04-22T11:27:21.080Z,2.37
2019-04-22T11:29:49.995Z,2.33
2019-04-22T11:32:20.159Z,1.93
2019-04-22T11:34:49.112Z,2.43
2019-04-22T11:37:18.548Z,3.13
2019-04-22T11:40:00.266Z,2.67
2019-04-22T11:42:18.273Z,2.30
2019-04-22T11:44:47.497Z,2.43
2019-04-22T11:47:17.161Z,2.30
2019-04-22T11:49:45.975Z,2.70
2019-04-22T11:52:16.709Z,1.80
2019-04-22T11:54:46.507Z,2.17
2019-04-22T11:57:16.985Z,1.97
2019-04-22T11:59:46.989Z,1.83
2019-04-22T12:02:19.231Z,1.90
2019-04-22T12:04:47.942Z,1.97
2019-04-22T12:07:17.206Z,1.70
2019-04-22T12:09:45.985Z,2.43
2019-04-22T12:12:15.972Z,1.67
2019-04-22T12:14:46.123Z,2.30
2019-04-22T12:17:15.998Z,1.63
2019-04-22T12:19:46.281Z,1.70
2019-04-22T12:22:15.422Z,1.93
2019-04-22T12:24:46.046Z,1.77
2019-04-22T12:27:17.388Z,1.40
2019-04-22T12:29:45.189Z,1.23
2019-04-22T12:32:17.775Z,1.23
2019-04-22T12:34:47.156Z,1.77
2019-04-22T12:37:27.401Z,0.93
2019-04-22T12:39:48.073Z,2.10
2019-04-22T12:42:17.484Z,1.83
2019-04-22T12:44:47.703Z,1.50
2019-04-22T12:47:17.811Z,1.70
2019-04-22T12:49:54.269Z,2.07
2019-04-22T12:52:29.203Z,2.37
2019-04-22T12:54:48.956Z,1.27
2019-04-22T12:57:18.814Z,2.07
2019-04-22T12:59:47.979Z,1.83
2019-04-22T13:02:16.618Z,1.40
2019-04-22T13:04:45.987Z,1.90
2019-04-22T13:07:15.735Z,1.87
2019-04-22T13:09:45.384Z,1.97
2019-04-22T13:12:15.210Z,2.07
2019-04-22T13:14:45.420Z,1.50
2019-04-22T13:17:15.715Z,1.83
2019-04-22T13:19:47.821Z,1.40
2019-04-22T13:22:16.857Z,1.93
2019-04-22T13:24:45.877Z,1.70
2019-04-22T13:27:15.027Z,1.87
2019-04-22T13:29:46.549Z,3.27
2019-04-22T13:32:14.269Z,1.83
2019-04-22T13:34:48.044Z,1.67
2019-04-22T13:37:14.705Z,1.77
2019-04-22T13:39:43.835Z,1.33
2019-04-22T13:42:19.311Z,1.80
2019-04-22T13:44:46.053Z,2.13
2019-04-22T13:47:35.009Z,1.93
2019-04-22T13:50:28.233Z,1.80
2019-04-22T13:53:00.662Z,1.93
2019-04-22T13:55:17.730Z,1.97
2019-04-22T13:57:40.155Z,1.63
2019-04-22T13:59:55.848Z,1.63
2019-04-22T14:02:37.829Z,1.87
2019-04-22T14:05:08.638Z,1.73
2019-04-22T14:07:38.839Z,2.20
2019-04-22T14:10:08.716Z,2.27
2019-04-22T14:12:39.022Z,1.73
2019-04-22T14:15:11.721Z,2.20
2019-04-22T14:17:41.038Z,2.30
2019-04-22T14:20:10.941Z,2.20
2019-04-22T14:22:40.816Z,2.10
2019-04-22T14:25:10.529Z,2.00
2019-04-22T14:27:48.599Z,1.90
2019-04-22T14:30:10.850Z,2.33
2019-04-22T14:32:39.888Z,2.30
2019-04-22T14:35:11.227Z,1.40
2019-04-22T14:37:40.335Z,2.20
2019-04-22T14:40:12.287Z,2.50
2019-04-22T14:43:04.108Z,1.70
2019-04-22T14:45:46.018Z,1.90
2019-04-22T14:48:07.280Z,2.57
2019-04-22T14:50:37.239Z,1.70
2019-04-22T14:53:03.681Z,2.50
2019-04-22T14:55:22.654Z,2.33
2019-04-22T14:57:46.838Z,2.20
2019-04-22T15:00:18.074Z,2.77
2019-04-22T15:02:47.928Z,2.50
2019-04-22T15:05:18.550Z,2.50
2019-04-22T15:07:47.726Z,1.27
2019-04-22T15:10:18.124Z,2.13
2019-04-22T15:12:50.231Z,2.10
2019-04-22T15:15:31.740Z,1.97
2019-04-22T15:18:03.057Z,2.27
2019-04-22T15:20:37.526Z,2.00
2019-04-22T15:23:06.742Z,2.00
2019-04-22T15:25:36.753Z,2.30
2019-04-22T15:28:05.801Z,2.50
2019-04-22T15:30:35.219Z,2.40
2019-04-22T15:33:05.410Z,3.60
2019-04-22T15:35:35.458Z,2.30
2019-04-22T15:38:04.810Z,2.70
2019-04-22T15:40:34.590Z,2.40
2019-04-22T15:43:04.734Z,2.47
2019-04-22T15:45:34.927Z,1.83
2019-04-22T15:48:04.166Z,2.43
2019-04-22T15:50:33.177Z,2.60
2019-04-22T15:53:03.004Z,2.80
2019-04-22T15:55:32.623Z,2.53
2019-04-22T15:58:01.867Z,3.37
2019-04-22T16:00:41.488Z,2.77
2019-04-22T16:03:04.257Z,2.30
2019-04-22T16:05:32.230Z,2.40
2019-04-22T16:08:01.387Z,2.77
2019-04-22T16:10:30.393Z,3.03
2019-04-22T16:13:07.328Z,3.20
2019-04-22T16:15:30.730Z,3.30
2019-04-22T16:18:01.651Z,3.47
2019-04-22T16:20:30.141Z,3.23
2019-04-22T16:23:18.762Z,2.90
2019-04-22T16:25:56.647Z,2.90
2019-04-22T16:28:25.325Z,3.53
2019-04-22T16:30:55.337Z,2.80
2019-04-22T16:33:25.668Z,3.20
2019-04-22T16:35:55.065Z,2.57
2019-04-22T16:38:24.769Z,2.70
2019-04-22T16:40:54.840Z,3.00
2019-04-22T16:43:24.715Z,3.30
2019-04-22T16:45:53.884Z,3.20
2019-04-22T16:48:22.515Z,3.40
2019-04-22T16:50:52.715Z,3.30
2019-04-22T16:53:23.218Z,3.90
2019-04-22T16:55:52.964Z,2.87
2019-04-22T16:58:23.153Z,3.03
2019-04-22T17:00:54.715Z,2.90
2019-04-22T17:03:28.915Z,2.70
2019-04-22T17:06:11.905Z,2.60
2019-04-22T17:08:40.747Z,3.47
2019-04-22T17:11:13.584Z,3.00
2019-04-22T17:13:44.175Z,3.20
2019-04-22T17:16:15.675Z,3.20
2019-04-22T17:18:46.817Z,2.77
2019-04-22T17:21:15.299Z,3.70
2019-04-22T17:23:45.555Z,3.57
2019-04-22T17:26:14.879Z,3.37
2019-04-22T17:28:43.855Z,3.27
2019-04-22T17:31:13.121Z,3.10
2019-04-22T17:33:41.927Z,3.30
2019-04-22T17:36:12.003Z,3.43
2019-04-22T17:38:51.997Z,2.83
2019-04-22T17:41:27.065Z,3.60
2019-04-22T17:44:04.842Z,4.20
2019-04-22T17:46:32.978Z,3.10
2019-04-22T17:49:10.451Z,3.83
2019-04-22T17:52:02.858Z,4.40
2019-04-22T17:54:11.626Z,4.53
2019-04-22T17:56:43.373Z,13.10
2019-04-22T17:59:15.614Z,4.20
2019-04-22T18:01:39.853Z,3.80
2019-04-22T18:03:56.629Z,3.40
2019-04-22T18:06:52.794Z,4.03
2019-04-22T18:09:14.632Z,4.20
2019-04-22T18:11:51.245Z,3.77
2019-04-22T18:14:29.928Z,3.73
2019-04-22T18:16:47.652Z,4.33
2019-04-22T18:19:15.485Z,4.03
2019-04-22T18:21:41.250Z,4.20
2019-04-22T18:24:07.929Z,3.17
2019-04-22T18:26:49.789Z,3.93
2019-04-22T18:29:25.481Z,3.60
2019-04-22T18:31:43.260Z,4.03
2019-04-22T18:34:19.075Z,3.97
2019-04-22T18:36:46.616Z,9.17
2019-04-22T18:39:28.542Z,11.83
2019-04-22T18:41:51.962Z,5.93
2019-04-22T18:44:29.592Z,3.90
2019-04-22T18:46:55.068Z,4.27
2019-04-22T18:49:26.762Z,5.80
2019-04-22T18:52:00.800Z,4.63
2019-04-22T18:54:31.055Z,3.70
2019-04-22T18:57:02.669Z,3.57
2019-04-22T18:59:22.567Z,4.17
2019-04-22T19:01:48.109Z,3.50
2019-04-22T19:04:26.783Z,4.20
2019-04-22T19:07:12.133Z,3.70
2019-04-22T19:09:48.324Z,3.70
2019-04-22T19:12:24.148Z,3.20
2019-04-22T19:14:50.641Z,3.87
2019-04-22T19:17:27.425Z,3.33
2019-04-22T19:19:49.991Z,3.80
2019-04-22T19:22:16.251Z,4.70
2019-04-22T19:24:45.874Z,3.23
2019-04-22T19:27:15.720Z,3.40
2019-04-22T19:29:54.096Z,3.47
2019-04-22T19:32:14.789Z,3.60
2019-04-22T19:34:47.838Z,4.37
2019-04-22T19:37:20.672Z,3.70
2019-04-22T19:40:00.626Z,4.57
2019-04-22T19:42:24.890Z,3.93
2019-04-22T19:44:53.228Z,4.37
2019-04-22T19:47:38.806Z,3.80
2019-04-22T19:49:58.433Z,3.87
2019-04-22T19:52:24.382Z,4.17
2019-04-22T19:54:54.985Z,3.83
2019-04-22T19:57:22.590Z,3.93
2019-04-22T19:59:50.831Z,4.57
2019-04-22T20:02:28.902Z,3.43
2019-04-22T20:05:06.439Z,3.07
2019-04-22T20:07:48.715Z,3.60
2019-04-22T20:10:19.573Z,3.60
2019-04-22T20:12:42.479Z,3.50
2019-04-22T20:15:14.314Z,4.77
2019-04-22T20:18:07.583Z,3.23
2019-04-22T20:20:22.748Z,3.97
2019-04-22T20:22:45.153Z,4.33
2019-04-22T20:25:09.826Z,3.83
2019-04-22T20:27:47.545Z,4.37
2019-04-22T20:30:23.549Z,4.30
2019-04-22T20:32:47.667Z,4.30
2019-04-22T20:35:20.995Z,3.40
2019-04-22T20:37:52.655Z,4.03
2019-04-22T20:40:25.298Z,3.50
2019-04-22T20:42:56.771Z,4.37
2019-04-22T20:45:24.745Z,4.23
2019-04-22T20:47:45.502Z,3.57
2019-04-22T20:50:24.941Z,4.27
2019-04-22T20:52:59.650Z,4.00
2019-04-22T20:55:23.926Z,4.53
2019-04-22T20:57:59.017Z,4.70
2019-04-22T21:00:23.808Z,4.77
2019-04-22T21:02:48.816Z,5.07
2019-04-22T21:05:26.494Z,3.40
2019-04-22T21:08:06.326Z,3.70
2019-04-22T21:10:27.670Z,4.67
2019-04-22T21:13:01.254Z,3.90
2019-04-22T21:15:42.442Z,5.67
2019-04-22T21:18:08.251Z,4.50
2019-04-22T21:20:43.195Z,3.70
2019-04-22T21:23:05.203Z,4.20
2019-04-22T21:25:31.916Z,4.97
2019-04-22T21:28:11.094Z,4.07
2019-04-22T21:30:37.249Z,4.00
2019-04-22T21:33:07.690Z,3.80
2019-04-22T21:35:53.709Z,4.13
2019-04-22T21:38:14.870Z,3.97
2019-04-22T21:40:39.727Z,4.20
2019-04-22T21:43:12.146Z,5.10
2019-04-22T21:45:39.078Z,4.17
2019-04-22T21:48:23.026Z,4.43
2019-04-22T21:50:54.279Z,4.83
2019-04-22T21:53:18.034Z,3.60
2019-04-22T21:55:50.429Z,4.00
2019-04-22T21:58:27.719Z,3.73
2019-04-22T22:01:14.576Z,4.93
2019-04-22T22:03:38.658Z,5.00
2019-04-22T22:05:58.841Z,4.60
2019-04-22T22:08:40.286Z,4.40
2019-04-22T22:11:11.319Z,4.47
2019-04-22T22:13:43.790Z,5.00
2019-04-22T22:16:07.741Z,3.90
2019-04-22T22:18:29.040Z,3.97
2019-04-22T22:21:25.770Z,4.67
2019-04-22T22:23:45.752Z,4.30
2019-04-22T22:26:06.789Z,4.20
2019-04-22T22:28:54.881Z,4.40
2019-04-22T22:31:19.824Z,4.40
2019-04-22T22:33:41.804Z,4.70
2019-04-22T22:36:05.012Z,4.73
2019-04-22T22:38:38.889Z,4.00
2019-04-22T22:40:51.998Z,4.50
2019-04-22T22:43:29.739Z,4.60
2019-04-22T22:46:06.276Z,4.50
2019-04-22T22:48:43.373Z,4.83
2019-04-22T22:51:15.170Z,4.10
2019-04-22T22:53:47.844Z,4.33
2019-04-22T22:56:14.216Z,4.70
2019-04-22T22:58:50.602Z,4.33
2019-04-22T23:01:21.241Z,4.57
2019-04-22T23:04:06.488Z,3.70
2019-04-22T23:06:20.651Z,4.37
2019-04-22T23:08:53.999Z,4.73
2019-04-22T23:11:26.823Z,4.50
2019-04-22T23:13:49.748Z,4.50
2019-04-22T23:16:10.088Z,4.57
2019-04-22T23:18:28.051Z,4.40
2019-04-22T23:20:57.787Z,3.80
2019-04-22T23:23:43.945Z,5.07
2019-04-22T23:26:40.991Z,4.27
2019-04-22T23:29:06.186Z,5.10
2019-04-22T23:31:36.843Z,4.57
2019-04-22T23:34:11.373Z,5.27
2019-04-22T23:36:57.623Z,4.70
2019-04-22T23:39:43.534Z,4.10
2019-04-22T23:42:15.914Z,4.33
2019-04-22T23:44:39.729Z,5.27
2019-04-22T23:47:06.098Z,4.03
2019-04-22T23:49:32.491Z,4.50
2019-04-22T23:52:13.309Z,4.53
2019-04-22T23:54:51.012Z,5.80
2019-04-22T23:57:24.083Z,4.53
2019-04-22T23:59:57.114Z,4.17
